Time;durP1;ratioP1;P1;durP2;ratioP2;P2;SDS_P1;SDS_P2;PMS_P1;PMS_P2;Temp;Humidity;BMP_temperature;BMP_pressure;BME280_temperature;BME280_humidity;BME280_pressure;Samples;Min_cycle;Max_cycle;Signal;HPM_P1;HPM_P2
2022/03/04 00:01:58;;;;;;;17.55;9.50;;;;;;;;;;4975029;28;20179;-92
2022/03/04 00:04:24;;;;;;;20.17;8.98;;;;;;;;;;4973249;28;20042;-92
2022/03/04 00:06:51;;;;;;;20.05;10.70;;;;;;;;;;4957630;28;20039;-91
2022/03/04 00:09:16;;;;;;;20.38;10.05;;;;;;;;;;4972932;28;20454;-92
2022/03/04 00:11:42;;;;;;;19.52;10.50;;;;;;;;;;4973184;28;20053;-92
2022/03/04 00:14:08;;;;;;;24.95;11.45;;;;;;;;;;4956856;28;20066;-92
2022/03/04 00:16:35;;;;;;;19.98;10.35;;;;;;;;;;4973504;28;20103;-92
2022/03/04 00:19:09;;;;;;;22.75;11.27;;;;;;;;;;4972897;28;20406;-93
2022/03/04 00:21:39;;;;;;;23.75;11.90;;;;;;;;;;4973009;28;20105;-92
2022/03/04 00:24:06;;;;;;;23.85;11.48;;;;;;;;;;4957051;28;20038;-93
2022/03/04 00:26:32;;;;;;;21.23;11.40;;;;;;;;;;4957018;28;20046;-91
2022/03/04 00:28:58;;;;;;;20.33;11.02;;;;;;;;;;4973099;28;20043;-90
2022/03/04 00:31:25;;;;;;;23.20;11.18;;;;;;;;;;4972946;28;20042;-91
2022/03/04 00:33:51;;;;;;;22.40;10.07;;;;;;;;;;4972970;28;20054;-91
2022/03/04 00:36:17;;;;;;;19.20;10.38;;;;;;;;;;4972749;28;20178;-92
2022/03/04 00:38:43;;;;;;;17.75;10.25;;;;;;;;;;4972570;28;20078;-90
2022/03/04 00:41:09;;;;;;;20.20;10.15;;;;;;;;;;4972794;28;20141;-89
2022/03/04 00:43:35;;;;;;;19.45;10.48;;;;;;;;;;4973010;28;20034;-93
2022/03/04 00:46:01;;;;;;;18.40;9.98;;;;;;;;;;4959099;28;20557;-92
2022/03/04 00:48:27;;;;;;;20.10;10.43;;;;;;;;;;4976291;28;20089;-90
2022/03/04 00:50:53;;;;;;;18.55;9.73;;;;;;;;;;4959950;28;20034;-91
2022/03/04 00:53:19;;;;;;;18.40;9.63;;;;;;;;;;4976227;28;20047;-92
2022/03/04 00:55:45;;;;;;;22.08;10.50;;;;;;;;;;4975873;28;20553;-91
2022/03/04 00:58:11;;;;;;;20.88;10.10;;;;;;;;;;4976029;28;20105;-91
2022/03/04 01:00:37;;;;;;;20.55;10.52;;;;;;;;;;4975937;28;20043;-91
2022/03/04 01:03:03;;;;;;;21.08;11.35;;;;;;;;;;4976151;28;20406;-91
2022/03/04 01:05:30;;;;;;;23.65;10.30;;;;;;;;;;4975973;28;20038;-91
2022/03/04 01:07:56;;;;;;;23.33;11.60;;;;;;;;;;4976002;28;20043;-92
2022/03/04 01:10:22;;;;;;;22.42;11.88;;;;;;;;;;4959872;28;20093;-91
2022/03/04 01:12:48;;;;;;;21.55;11.30;;;;;;;;;;4959598;28;20074;-92
2022/03/04 01:15:14;;;;;;;24.52;12.95;;;;;;;;;;4975553;28;20046;-91
2022/03/04 01:17:40;;;;;;;21.05;11.45;;;;;;;;;;4975567;28;20043;-90
2022/03/04 01:20:07;;;;;;;22.23;11.48;;;;;;;;;;4975378;28;20061;-92
2022/03/04 01:22:33;;;;;;;21.75;11.13;;;;;;;;;;4975748;28;20043;-91
2022/03/04 01:24:59;;;;;;;19.77;11.48;;;;;;;;;;4975557;28;20039;-92
2022/03/04 01:27:25;;;;;;;24.00;11.93;;;;;;;;;;4975324;28;20062;-90
2022/03/04 01:29:51;;;;;;;22.35;11.55;;;;;;;;;;4959224;28;20058;-91
2022/03/04 01:32:17;;;;;;;24.05;12.30;;;;;;;;;;4975318;28;20042;-92
2022/03/04 01:34:43;;;;;;;25.67;12.73;;;;;;;;;;4975031;28;20506;-91
2022/03/04 01:37:10;;;;;;;24.08;11.82;;;;;;;;;;4959354;28;20170;-91
2022/03/04 01:39:36;;;;;;;25.20;12.63;;;;;;;;;;4958888;28;20047;-91
2022/03/04 01:42:02;;;;;;;23.48;11.55;;;;;;;;;;4975380;28;20419;-92
2022/03/04 01:44:29;;;;;;;21.33;11.73;;;;;;;;;;4974977;28;20039;-92
2022/03/04 01:46:55;;;;;;;24.10;13.30;;;;;;;;;;4975483;28;20081;-95
2022/03/04 01:49:21;;;;;;;26.65;12.93;;;;;;;;;;4959506;28;20046;-95
2022/03/04 01:51:47;;;;;;;24.65;11.60;;;;;;;;;;4975253;28;20086;-91
2022/03/04 01:54:13;;;;;;;21.75;12.13;;;;;;;;;;4974884;28;20043;-90
2022/03/04 01:56:40;;;;;;;22.15;11.73;;;;;;;;;;4973431;28;20046;-92
2022/03/04 01:59:06;;;;;;;24.88;12.23;;;;;;;;;;4959154;28;20049;-91
2022/03/04 02:01:32;;;;;;;25.25;12.15;;;;;;;;;;4975083;28;20047;-90
2022/03/04 02:03:59;;;;;;;23.08;12.05;;;;;;;;;;4974933;28;20122;-93
2022/03/04 02:06:25;;;;;;;23.23;11.75;;;;;;;;;;4975015;28;20050;-90
2022/03/04 02:08:51;;;;;;;23.33;12.55;;;;;;;;;;4974884;28;20047;-90
2022/03/04 02:11:17;;;;;;;21.90;11.90;;;;;;;;;;4974578;28;20045;-89
2022/03/04 02:13:43;;;;;;;22.77;12.82;;;;;;;;;;4958418;28;20050;-91
2022/03/04 02:16:34;;;;;;;25.00;12.02;;;;;;;;;;4958343;28;20070;-90
2022/03/04 02:19:00;;;;;;;22.17;11.98;;;;;;;;;;4974919;28;20479;-91
2022/03/04 02:21:26;;;;;;;22.95;11.70;;;;;;;;;;4958195;28;20047;-91
2022/03/04 02:23:52;;;;;;;24.98;11.75;;;;;;;;;;4958588;28;20478;-91
2022/03/04 02:26:18;;;;;;;26.42;13.00;;;;;;;;;;4958750;28;20062;-93
2022/03/04 02:28:45;;;;;;;22.58;12.55;;;;;;;;;;4974981;28;20478;-90
2022/03/04 02:31:21;;;;;;;23.63;11.93;;;;;;;;;;4958367;28;20039;-92
2022/03/04 02:33:48;;;;;;;24.92;13.27;;;;;;;;;;4975007;28;20078;-91
2022/03/04 02:36:14;;;;;;;21.80;12.30;;;;;;;;;;4974083;28;20039;-92
2022/03/04 02:38:40;;;;;;;22.38;11.80;;;;;;;;;;4974596;28;20039;-92
2022/03/04 02:41:06;;;;;;;23.92;12.18;;;;;;;;;;4973954;28;20125;-89
2022/03/04 02:43:33;;;;;;;25.77;13.52;;;;;;;;;;4974521;28;20098;-90
2022/03/04 02:45:59;;;;;;;24.52;12.75;;;;;;;;;;4974052;28;20089;-91
2022/03/04 02:48:25;;;;;;;25.92;12.85;;;;;;;;;;4974200;28;20043;-92
2022/03/04 02:50:51;;;;;;;26.42;13.23;;;;;;;;;;4973750;28;20066;-92
2022/03/04 02:53:17;;;;;;;26.60;13.23;;;;;;;;;;4974347;28;20576;-91
2022/03/04 02:55:43;;;;;;;24.98;13.65;;;;;;;;;;4957749;28;20101;-91
2022/03/04 02:58:09;;;;;;;25.17;12.25;;;;;;;;;;4974205;28;20046;-91
2022/03/04 03:00:36;;;;;;;26.73;12.40;;;;;;;;;;4973465;28;20514;-90
2022/03/04 03:03:02;;;;;;;26.95;13.20;;;;;;;;;;4957620;28;20046;-93
2022/03/04 03:05:28;;;;;;;23.50;13.05;;;;;;;;;;4973533;28;20253;-91
2022/03/04 03:07:54;;;;;;;26.92;13.98;;;;;;;;;;4973516;28;20138;-91
2022/03/04 03:10:20;;;;;;;24.20;13.63;;;;;;;;;;4973304;28;20506;-92
2022/03/04 03:12:46;;;;;;;29.00;14.27;;;;;;;;;;4973663;28;20134;-92
2022/03/04 03:15:12;;;;;;;25.98;12.88;;;;;;;;;;4973366;28;20105;-91
2022/03/04 03:17:38;;;;;;;25.75;13.63;;;;;;;;;;4957417;28;20046;-91
2022/03/04 03:20:05;;;;;;;26.00;14.15;;;;;;;;;;4974080;28;20394;-93
2022/03/04 03:22:31;;;;;;;27.27;14.23;;;;;;;;;;4973339;28;20043;-92
2022/03/04 03:24:57;;;;;;;30.45;15.25;;;;;;;;;;4977901;28;20039;-91
2022/03/04 03:27:23;;;;;;;26.17;13.70;;;;;;;;;;4973196;28;20035;-90
2022/03/04 03:29:49;;;;;;;30.88;16.25;;;;;;;;;;4973649;28;20392;-92
2022/03/04 03:32:16;;;;;;;33.15;15.57;;;;;;;;;;4973296;28;20054;-91
2022/03/04 03:34:42;;;;;;;29.05;15.23;;;;;;;;;;4973682;28;20062;-94
2022/03/04 03:37:09;;;;;;;29.35;14.45;;;;;;;;;;4973295;28;20039;-91
2022/03/04 03:39:35;;;;;;;30.40;15.55;;;;;;;;;;4973677;28;20053;-92
2022/03/04 03:42:01;;;;;;;35.15;15.90;;;;;;;;;;4956981;28;20130;-91
2022/03/04 03:44:27;;;;;;;31.10;15.35;;;;;;;;;;4973346;28;20066;-90
2022/03/04 03:46:53;;;;;;;29.40;14.55;;;;;;;;;;4957199;28;20439;-91
2022/03/04 03:49:19;;;;;;;27.65;14.63;;;;;;;;;;4957376;28;20039;-92
2022/03/04 03:51:45;;;;;;;28.33;14.00;;;;;;;;;;4957218;28;20477;-90
2022/03/04 03:54:11;;;;;;;28.83;14.60;;;;;;;;;;4973141;28;20051;-91
2022/03/04 03:56:38;;;;;;;27.23;13.70;;;;;;;;;;4956996;28;20137;-92
2022/03/04 03:59:04;;;;;;;31.58;15.15;;;;;;;;;;4973695;28;20417;-92
2022/03/04 04:01:30;;;;;;;29.58;15.32;;;;;;;;;;4957026;28;20042;-91
2022/03/04 04:03:56;;;;;;;32.72;15.38;;;;;;;;;;4973349;28;20126;-90
2022/03/04 04:06:22;;;;;;;30.23;14.43;;;;;;;;;;4973081;28;20082;-90
2022/03/04 04:08:48;;;;;;;29.40;15.05;;;;;;;;;;4957184;28;20039;-91
2022/03/04 04:11:14;;;;;;;30.42;14.90;;;;;;;;;;4973051;28;20039;-91
2022/03/04 04:13:40;;;;;;;30.63;15.02;;;;;;;;;;4972747;28;20067;-91
2022/03/04 04:16:06;;;;;;;29.30;15.05;;;;;;;;;;4956873;28;20043;-91
2022/03/04 04:18:32;;;;;;;34.58;16.02;;;;;;;;;;4956982;28;20035;-92
2022/03/04 04:20:58;;;;;;;31.13;16.00;;;;;;;;;;4975489;28;20042;-91
2022/03/04 04:23:24;;;;;;;31.27;15.70;;;;;;;;;;4976663;28;20497;-90
2022/03/04 04:25:50;;;;;;;32.50;16.17;;;;;;;;;;4960575;28;20035;-91
2022/03/04 04:28:16;;;;;;;30.67;16.23;;;;;;;;;;4960654;28;20043;-91
2022/03/04 04:30:42;;;;;;;34.67;16.85;;;;;;;;;;4976797;28;20470;-90
2022/03/04 04:33:08;;;;;;;33.17;15.88;;;;;;;;;;4960368;28;20046;-90
2022/03/04 04:35:34;;;;;;;31.70;15.30;;;;;;;;;;4976546;28;20049;-91
2022/03/04 04:38:00;;;;;;;32.97;15.90;;;;;;;;;;4959955;28;20133;-91
2022/03/04 04:40:26;;;;;;;33.35;17.38;;;;;;;;;;4976583;28;20564;-92
2022/03/04 04:42:52;;;;;;;37.88;17.48;;;;;;;;;;4960415;28;20078;-93
2022/03/04 04:45:19;;;;;;;32.80;16.65;;;;;;;;;;4976852;28;20100;-92
2022/03/04 04:47:45;;;;;;;34.15;17.60;;;;;;;;;;4959996;28;20046;-94
2022/03/04 04:50:11;;;;;;;34.70;17.42;;;;;;;;;;4960458;28;20132;-91
2022/03/04 04:52:37;;;;;;;33.42;16.85;;;;;;;;;;4959738;28;20374;-91
2022/03/04 04:55:03;;;;;;;34.53;17.33;;;;;;;;;;4976436;28;20047;-91
2022/03/04 04:57:29;;;;;;;34.65;16.92;;;;;;;;;;4959931;28;20049;-93
2022/03/04 04:59:55;;;;;;;34.58;17.65;;;;;;;;;;4976157;28;20122;-91
2022/03/04 05:02:21;;;;;;;31.27;16.80;;;;;;;;;;4959827;28;20043;-93
2022/03/04 05:04:47;;;;;;;34.47;17.02;;;;;;;;;;4975725;28;20455;-91
2022/03/04 05:07:13;;;;;;;33.60;16.55;;;;;;;;;;4975747;28;20043;-92
2022/03/04 05:09:39;;;;;;;32.83;17.13;;;;;;;;;;4975701;28;20043;-92
2022/03/04 05:12:06;;;;;;;36.55;17.67;;;;;;;;;;4975576;28;20038;-90
2022/03/04 05:14:31;;;;;;;34.33;17.88;;;;;;;;;;4975701;28;20054;-90
2022/03/04 05:16:57;;;;;;;40.05;17.10;;;;;;;;;;4975175;28;20043;-90
2022/03/04 05:19:23;;;;;;;35.35;17.67;;;;;;;;;;4975560;28;20039;-90
2022/03/04 05:21:49;;;;;;;30.35;16.63;;;;;;;;;;4975439;28;20043;-91
2022/03/04 05:24:15;;;;;;;35.78;16.85;;;;;;;;;;4975625;28;20074;-91
2022/03/04 05:26:42;;;;;;;34.17;16.45;;;;;;;;;;4959047;28;20505;-89
2022/03/04 05:29:09;;;;;;;35.25;17.30;;;;;;;;;;4975240;28;20049;-91
2022/03/04 05:31:36;;;;;;;30.77;15.85;;;;;;;;;;4975469;28;20125;-90
2022/03/04 05:34:02;;;;;;;33.20;16.35;;;;;;;;;;4959185;28;20046;-90
2022/03/04 05:36:28;;;;;;;32.58;16.20;;;;;;;;;;4975690;28;20047;-93
2022/03/04 05:38:54;;;;;;;29.65;15.73;;;;;;;;;;4975167;28;20102;-92
2022/03/04 05:41:21;;;;;;;31.75;17.08;;;;;;;;;;4975590;28;20039;-93
2022/03/04 05:43:48;;;;;;;32.38;17.15;;;;;;;;;;4975991;28;20041;-93
2022/03/04 05:46:14;;;;;;;29.23;15.35;;;;;;;;;;4960755;28;20125;-93
2022/03/04 05:48:41;;;;;;;30.30;16.15;;;;;;;;;;4960056;28;20039;-92
2022/03/04 05:51:07;;;;;;;28.42;15.68;;;;;;;;;;4959811;28;20054;-94
2022/03/04 05:53:33;;;;;;;34.67;17.25;;;;;;;;;;4992483;28;20458;-93
2022/03/04 05:56:05;;;;;;;30.17;16.70;;;;;;;;;;4998720;28;20074;-92
2022/03/04 05:58:31;;;;;;;28.65;15.90;;;;;;;;;;4994217;28;20529;-94
2022/03/04 06:00:57;;;;;;;28.15;15.68;;;;;;;;;;4994502;28;20497;-93
2022/03/04 06:03:23;;;;;;;28.38;15.88;;;;;;;;;;4994039;28;20038;-93
2022/03/04 06:05:49;;;;;;;29.30;15.95;;;;;;;;;;4978219;28;20053;-92
2022/03/04 06:08:15;;;;;;;28.52;16.38;;;;;;;;;;4993813;28;20169;-92
2022/03/04 06:10:41;;;;;;;31.73;16.27;;;;;;;;;;4978319;28;20085;-92
2022/03/04 06:13:07;;;;;;;29.10;16.00;;;;;;;;;;4977597;28;20097;-91
2022/03/04 06:15:34;;;;;;;30.38;16.73;;;;;;;;;;4978003;28;20055;-93
2022/03/04 06:18:00;;;;;;;31.80;16.05;;;;;;;;;;4994007;28;20042;-92
2022/03/04 06:20:26;;;;;;;31.35;16.38;;;;;;;;;;4994069;28;20049;-94
2022/03/04 06:22:52;;;;;;;30.55;16.65;;;;;;;;;;4993647;28;20042;-92
2022/03/04 06:25:18;;;;;;;32.65;16.55;;;;;;;;;;4994271;28;20044;-92
2022/03/04 06:27:58;;;;;;;31.02;15.30;;;;;;;;;;4993734;28;20042;-93
2022/03/04 06:30:24;;;;;;;28.63;15.77;;;;;;;;;;4986609;28;20490;-94
2022/03/04 06:32:51;;;;;;;32.05;16.42;;;;;;;;;;4993896;28;20069;-92
2022/03/04 06:35:17;;;;;;;33.95;16.42;;;;;;;;;;4994478;28;20050;-92
2022/03/04 06:37:43;;;;;;;30.98;15.25;;;;;;;;;;4993931;28;20046;-92
2022/03/04 06:40:10;;;;;;;28.52;15.30;;;;;;;;;;4977481;28;20042;-92
2022/03/04 06:42:36;;;;;;;31.15;15.85;;;;;;;;;;4976683;28;20043;-92
2022/03/04 06:45:02;;;;;;;28.63;15.63;;;;;;;;;;4977290;28;20065;-90
2022/03/04 06:47:28;;;;;;;31.17;17.42;;;;;;;;;;4992820;28;20486;-90
2022/03/04 06:49:54;;;;;;;30.75;16.90;;;;;;;;;;4992771;28;20035;-90
2022/03/04 06:52:21;;;;;;;30.15;15.65;;;;;;;;;;4976531;28;20042;-90
2022/03/04 06:54:48;;;;;;;32.33;15.45;;;;;;;;;;4976512;28;20128;-91
2022/03/04 06:57:14;;;;;;;27.33;14.23;;;;;;;;;;4992785;28;20201;-93
2022/03/04 06:59:40;;;;;;;28.20;15.68;;;;;;;;;;4976746;28;20501;-90
2022/03/04 07:02:06;;;;;;;29.98;15.75;;;;;;;;;;4992512;28;20050;-91
2022/03/04 07:04:32;;;;;;;29.05;15.65;;;;;;;;;;4976049;28;20044;-91
2022/03/04 07:06:58;;;;;;;28.27;16.17;;;;;;;;;;4976623;28;20528;-90
2022/03/04 07:09:24;;;;;;;31.00;16.33;;;;;;;;;;4975999;28;20042;-90
2022/03/04 07:11:51;;;;;;;29.02;15.75;;;;;;;;;;4976293;28;20038;-90
2022/03/04 07:14:17;;;;;;;33.80;16.25;;;;;;;;;;4975881;28;20062;-90
2022/03/04 07:16:43;;;;;;;30.30;16.13;;;;;;;;;;4992413;28;20046;-90
2022/03/04 07:19:09;;;;;;;27.35;15.52;;;;;;;;;;4975857;28;20493;-91
2022/03/04 07:21:35;;;;;;;27.92;15.85;;;;;;;;;;4992243;28;20069;-90
2022/03/04 07:24:01;;;;;;;28.98;15.27;;;;;;;;;;4992085;28;20117;-90
2022/03/04 07:26:27;;;;;;;31.50;16.63;;;;;;;;;;4976199;28;20076;-91
2022/03/04 07:28:53;;;;;;;31.00;16.17;;;;;;;;;;4975933;28;20425;-92
2022/03/04 07:31:19;;;;;;;28.67;14.90;;;;;;;;;;4976265;28;20066;-91
2022/03/04 07:33:45;;;;;;;25.65;14.38;;;;;;;;;;4991894;28;20041;-90
2022/03/04 07:36:11;;;;;;;26.75;13.98;;;;;;;;;;4992050;28;20038;-91
2022/03/04 07:38:37;;;;;;;24.75;14.20;;;;;;;;;;4976880;28;20485;-92
2022/03/04 07:41:03;;;;;;;24.80;14.77;;;;;;;;;;4992718;28;20125;-91
2022/03/04 07:43:29;;;;;;;26.05;14.73;;;;;;;;;;4991673;28;20057;-90
2022/03/04 07:45:55;;;;;;;29.33;15.07;;;;;;;;;;4992224;28;20245;-91
2022/03/04 07:48:21;;;;;;;28.20;15.63;;;;;;;;;;4975904;28;20237;-90
2022/03/04 07:50:47;;;;;;;27.15;15.75;;;;;;;;;;4975848;28;20058;-90
2022/03/04 07:53:13;;;;;;;28.13;16.15;;;;;;;;;;4991691;28;20129;-90
2022/03/04 07:55:39;;;;;;;26.98;15.10;;;;;;;;;;4979846;28;20536;-91
2022/03/04 07:58:05;;;;;;;28.25;15.45;;;;;;;;;;4995691;28;20038;-92
2022/03/04 08:00:31;;;;;;;28.83;14.38;;;;;;;;;;4995705;28;20049;-91
2022/03/04 08:02:57;;;;;;;29.67;15.50;;;;;;;;;;4979869;28;20042;-90
2022/03/04 08:05:24;;;;;;;23.92;14.27;;;;;;;;;;4980269;28;20123;-91
2022/03/04 08:07:50;;;;;;;25.52;15.02;;;;;;;;;;4964983;28;20046;-92
2022/03/04 08:10:16;;;;;;;26.92;15.73;;;;;;;;;;4977293;28;20038;-92
2022/03/04 08:12:42;;;;;;;31.63;15.70;;;;;;;;;;4960748;28;20058;-93
2022/03/04 08:15:12;;;;;;;28.15;15.25;;;;;;;;;;4976933;28;20079;-91
2022/03/04 08:17:41;;;;;;;31.88;15.00;;;;;;;;;;4976724;28;20497;-91
2022/03/04 08:20:08;;;;;;;27.70;15.38;;;;;;;;;;4961075;28;20433;-92
2022/03/04 08:22:34;;;;;;;27.52;15.10;;;;;;;;;;4976833;28;20126;-92
2022/03/04 08:25:01;;;;;;;26.02;14.95;;;;;;;;;;4960667;28;20121;-92
2022/03/04 08:27:27;;;;;;;25.65;15.13;;;;;;;;;;4960926;28;20499;-92
2022/03/04 08:29:53;;;;;;;28.80;16.38;;;;;;;;;;4976812;28;20070;-92
2022/03/04 08:32:22;;;;;;;33.03;17.30;;;;;;;;;;4960604;28;20043;-92
2022/03/04 08:34:48;;;;;;;30.38;16.42;;;;;;;;;;4960337;28;20042;-91
2022/03/04 08:37:14;;;;;;;28.85;16.08;;;;;;;;;;4976733;28;20047;-90
2022/03/04 08:39:40;;;;;;;29.98;16.20;;;;;;;;;;4977823;28;20482;-91
2022/03/04 08:42:07;;;;;;;31.88;16.05;;;;;;;;;;4976775;28;20042;-91
2022/03/04 08:44:33;;;;;;;26.65;14.15;;;;;;;;;;4977121;28;20038;-92
2022/03/04 08:47:05;;;;;;;27.58;13.90;;;;;;;;;;5000473;23;20112;-93
2022/03/04 08:49:31;;;;;;;26.90;14.30;;;;;;;;;;4983587;28;20042;-93
2022/03/04 08:51:58;;;;;;;25.67;14.45;;;;;;;;;;5000299;28;20042;-94
2022/03/04 08:54:25;;;;;;;28.00;15.23;;;;;;;;;;4983053;28;20045;-95
2022/03/04 08:56:51;;;;;;;25.65;14.52;;;;;;;;;;4982985;28;20040;-90
2022/03/04 08:59:17;;;;;;;25.00;14.25;;;;;;;;;;4982769;28;20084;-92
2022/03/04 09:01:43;;;;;;;24.73;14.30;;;;;;;;;;4999583;28;20042;-93
2022/03/04 09:04:13;;;;;;;27.92;15.50;;;;;;;;;;4982901;28;20504;-91
2022/03/04 09:06:40;;;;;;;25.35;14.18;;;;;;;;;;4982622;28;20048;-92
2022/03/04 09:09:06;;;;;;;24.38;14.05;;;;;;;;;;4983061;28;20037;-94
2022/03/04 09:11:32;;;;;;;25.48;13.75;;;;;;;;;;4982830;28;20036;-93
2022/03/04 09:13:58;;;;;;;26.17;14.52;;;;;;;;;;4998952;28;20034;-92
2022/03/04 09:16:24;;;;;;;27.25;15.00;;;;;;;;;;4999055;28;20038;-92
2022/03/04 09:18:50;;;;;;;25.55;14.07;;;;;;;;;;4989988;28;20042;-92
2022/03/04 09:21:16;;;;;;;25.40;13.88;;;;;;;;;;5009050;28;20049;-94
2022/03/04 09:23:42;;;;;;;24.83;14.18;;;;;;;;;;4999120;28;20136;-93
2022/03/04 09:26:09;;;;;;;25.70;14.27;;;;;;;;;;4998681;28;20042;-95
2022/03/04 09:28:35;;;;;;;26.15;13.90;;;;;;;;;;4999129;28;20139;-93
2022/03/04 09:31:01;;;;;;;27.52;15.35;;;;;;;;;;4998737;28;20482;-91
2022/03/04 09:33:27;;;;;;;24.80;14.27;;;;;;;;;;4998647;28;20576;-92
2022/03/04 09:35:53;;;;;;;26.33;14.48;;;;;;;;;;4982071;28;20100;-93
2022/03/04 09:38:19;;;;;;;26.38;14.68;;;;;;;;;;4998568;28;20046;-92
2022/03/04 09:40:46;;;;;;;26.55;14.13;;;;;;;;;;4998486;28;20048;-93
2022/03/04 09:43:12;;;;;;;26.88;15.25;;;;;;;;;;4982470;28;20058;-94
2022/03/04 09:45:38;;;;;;;25.75;15.25;;;;;;;;;;4981716;28;20041;-92
2022/03/04 09:48:05;;;;;;;25.00;14.77;;;;;;;;;;4998395;28;20061;-94
2022/03/04 09:50:32;;;;;;;22.85;13.80;;;;;;;;;;4998377;28;20038;-95
2022/03/04 09:52:58;;;;;;;22.73;14.52;;;;;;;;;;4998629;28;20045;-92
2022/03/04 09:55:27;;;;;;;25.35;14.32;;;;;;;;;;4998223;28;20048;-93
2022/03/04 09:57:53;;;;;;;25.95;14.68;;;;;;;;;;4999284;28;20037;-95
2022/03/04 10:00:19;;;;;;;23.13;13.60;;;;;;;;;;4982877;28;20048;-95
2022/03/04 10:02:45;;;;;;;24.67;13.95;;;;;;;;;;4998514;28;20037;-93
2022/03/04 10:05:13;;;;;;;24.13;13.93;;;;;;;;;;4998214;28;20041;-93
2022/03/04 10:07:49;;;;;;;26.38;14.30;;;;;;;;;;4981874;28;20048;-95
2022/03/04 10:10:16;;;;;;;23.15;14.25;;;;;;;;;;4982076;28;20125;-94
2022/03/04 10:12:46;;;;;;;25.40;14.68;;;;;;;;;;4985070;28;20064;-93
2022/03/04 10:15:12;;;;;;;24.77;14.40;;;;;;;;;;4998977;28;20552;-94
2022/03/04 10:17:38;;;;;;;25.77;13.95;;;;;;;;;;4982764;28;20084;-93
2022/03/04 10:20:12;;;;;;;26.13;14.88;;;;;;;;;;4998677;28;20046;-94
2022/03/04 10:23:23;;;;;;;21.13;13.88;;;;;;;;;;4982314;28;20156;-93
2022/03/04 10:25:50;;;;;;;21.10;13.50;;;;;;;;;;4902698;29;20052;-94
2022/03/04 10:28:16;;;;;;;23.88;13.98;;;;;;;;;;4997002;28;20366;-95
2022/03/04 10:30:46;;;;;;;24.40;14.23;;;;;;;;;;4982930;28;20128;-93
2022/03/04 10:33:30;;;;;;;25.40;14.10;;;;;;;;;;4987833;28;20049;-93
2022/03/04 10:36:15;;;;;;;24.45;15.13;;;;;;;;;;4982946;28;20125;-94
2022/03/04 10:39:10;;;;;;;26.27;14.52;;;;;;;;;;5169358;27;20370;-95
2022/03/04 10:41:51;;;;;;;22.80;13.25;;;;;;;;;;5152224;27;20039;-95
2022/03/04 10:44:38;;;;;;;24.42;14.10;;;;;;;;;;5153519;27;20030;-94
2022/03/04 10:47:05;;;;;;;23.25;14.60;;;;;;;;;;5153875;27;20043;-94
2022/03/04 10:49:31;;;;;;;24.58;13.35;;;;;;;;;;5135791;27;20042;-95
2022/03/04 10:52:05;;;;;;;23.27;13.60;;;;;;;;;;5134142;27;20053;-94
2022/03/04 10:54:32;;;;;;;22.70;13.70;;;;;;;;;;5152009;27;20035;-92
2022/03/04 10:56:57;;;;;;;21.15;13.35;;;;;;;;;;5133988;27;20087;-92
2022/03/04 10:59:43;;;;;;;;;;;;;;;;;;;;;
2022/03/04 11:02:09;;;;;;;22.98;13.10;;;;;;;;;;5160520;27;20095;-92
2022/03/04 11:04:35;;;;;;;23.33;13.63;;;;;;;;;;5150953;27;20039;-91
2022/03/04 11:07:02;;;;;;;25.15;14.27;;;;;;;;;;5133719;27;20134;-95
2022/03/04 11:09:28;;;;;;;21.88;13.23;;;;;;;;;;5151010;27;20046;-92
2022/03/04 11:11:55;;;;;;;23.23;14.25;;;;;;;;;;5133443;27;20134;-93
2022/03/04 11:14:22;;;;;;;27.73;14.73;;;;;;;;;;5150632;27;20501;-93
2022/03/04 11:16:48;;;;;;;23.52;12.75;;;;;;;;;;5133247;27;20121;-92
2022/03/04 11:19:15;;;;;;;23.27;13.10;;;;;;;;;;5133490;27;20081;-92
2022/03/04 11:21:42;;;;;;;20.08;12.40;;;;;;;;;;5133466;27;20053;-92
2022/03/04 11:24:08;;;;;;;22.15;13.02;;;;;;;;;;5133467;27;20441;-94
2022/03/04 11:26:35;;;;;;;22.88;14.40;;;;;;;;;;5133139;27;20034;-93
2022/03/04 11:29:05;;;;;;;23.98;14.07;;;;;;;;;;5150963;27;20038;-94
2022/03/04 11:31:34;;;;;;;26.27;15.40;;;;;;;;;;5150929;27;20043;-93
2022/03/04 11:34:01;;;;;;;22.70;14.02;;;;;;;;;;5152228;27;20481;-91
2022/03/04 11:36:32;;;;;;;26.65;13.48;;;;;;;;;;5133975;27;20039;-92
2022/03/04 11:39:01;;;;;;;22.52;12.90;;;;;;;;;;5150336;27;20417;-92
2022/03/04 11:41:28;;;;;;;19.90;11.10;;;;;;;;;;5133132;27;20031;-92
2022/03/04 11:43:56;;;;;;;25.30;13.88;;;;;;;;;;5150336;27;20118;-94
2022/03/04 11:46:23;;;;;;;23.92;14.50;;;;;;;;;;5150369;27;20089;-92
2022/03/04 11:49:08;;;;;;;24.40;14.15;;;;;;;;;;5144522;27;20035;-94
2022/03/04 11:51:34;;;;;;;27.17;14.98;;;;;;;;;;5118884;27;20039;-92
2022/03/04 11:54:19;;;;;;;27.88;14.60;;;;;;;;;;5136121;27;20066;-92
2022/03/04 11:56:52;;;;;;;23.05;14.35;;;;;;;;;;5136292;27;20042;-92
2022/03/04 11:59:18;;;;;;;24.42;14.05;;;;;;;;;;5136555;27;20394;-93
2022/03/04 12:01:45;;;;;;;25.70;14.63;;;;;;;;;;5136119;27;20041;-93
2022/03/04 12:04:15;;;;;;;22.58;13.25;;;;;;;;;;5136482;27;20031;-93
2022/03/04 12:06:42;;;;;;;25.25;13.43;;;;;;;;;;5136279;27;20576;-92
2022/03/04 12:09:26;;;;;;;22.25;13.85;;;;;;;;;;5136476;27;20058;-94
2022/03/04 12:12:31;;;;;;;22.83;13.52;;;;;;;;;;5136946;27;20086;-94
2022/03/04 12:15:16;;;;;;;21.77;12.98;;;;;;;;;;5100928;27;20108;-93
2022/03/04 12:17:58;;;;;;;21.77;13.23;;;;;;;;;;5100847;27;20431;-93
2022/03/04 12:20:28;;;;;;;23.63;13.38;;;;;;;;;;5113007;27;20051;-93
2022/03/04 12:23:00;;;;;;;19.60;12.50;;;;;;;;;;5135805;27;20039;-92
2022/03/04 12:25:48;;;;;;;22.70;11.77;;;;;;;;;;5119554;27;20035;-93
2022/03/04 12:28:15;;;;;;;19.73;10.75;;;;;;;;;;5136219;27;20134;-94
2022/03/04 12:30:42;;;;;;;20.70;12.20;;;;;;;;;;5136217;27;20434;-92
2022/03/04 12:33:08;;;;;;;25.58;15.00;;;;;;;;;;5135917;27;20035;-94
2022/03/04 12:35:34;;;;;;;25.40;15.75;;;;;;;;;;5135353;27;20104;-91
2022/03/04 12:38:03;;;;;;;22.45;14.38;;;;;;;;;;5135050;27;20081;-92
2022/03/04 12:40:30;;;;;;;23.08;13.30;;;;;;;;;;5135685;27;20039;-93
2022/03/04 12:42:56;;;;;;;21.48;13.23;;;;;;;;;;5135494;27;20126;-92
2022/03/04 12:45:23;;;;;;;25.65;14.63;;;;;;;;;;5135658;27;20039;-92
2022/03/04 12:47:52;;;;;;;18.88;11.70;;;;;;;;;;5119002;27;20035;-92
2022/03/04 12:50:27;;;;;;;25.38;14.52;;;;;;;;;;5118260;27;20035;-93
2022/03/04 12:52:53;;;;;;;18.97;11.97;;;;;;;;;;5135056;27;20493;-93
2022/03/04 12:55:19;;;;;;;20.65;11.50;;;;;;;;;;5135206;27;20039;-93
2022/03/04 12:57:49;;;;;;;17.80;11.00;;;;;;;;;;5117910;27;20042;-91
2022/03/04 13:00:15;;;;;;;18.73;11.18;;;;;;;;;;5117561;28;20032;-94
2022/03/04 13:02:42;;;;;;;19.55;11.68;;;;;;;;;;5146645;27;20042;-91
2022/03/04 13:05:09;;;;;;;18.77;11.32;;;;;;;;;;5143927;27;20077;-93
2022/03/04 13:07:36;;;;;;;25.10;13.18;;;;;;;;;;5135299;27;20496;-94
2022/03/04 13:10:04;;;;;;;23.60;11.77;;;;;;;;;;5135562;27;20047;-93
2022/03/04 13:12:30;;;;;;;17.55;10.73;;;;;;;;;;5135796;27;20504;-93
2022/03/04 13:15:10;;;;;;;18.25;11.25;;;;;;;;;;5135266;27;20397;-92
2022/03/04 13:17:36;;;;;;;18.15;11.32;;;;;;;;;;5134638;27;20073;-92
2022/03/04 13:20:06;;;;;;;19.00;12.23;;;;;;;;;;5117886;27;20035;-90
2022/03/04 13:22:32;;;;;;;19.42;11.07;;;;;;;;;;5135178;27;20394;-92
2022/03/04 13:24:58;;;;;;;18.42;11.02;;;;;;;;;;5134868;27;20038;-91
2022/03/04 13:27:35;;;;;;;18.10;11.40;;;;;;;;;;5134506;27;20103;-93
2022/03/04 13:30:01;;;;;;;19.05;12.05;;;;;;;;;;5134764;27;20520;-93
2022/03/04 13:32:27;;;;;;;18.92;11.05;;;;;;;;;;5117549;27;20132;-92
2022/03/04 13:35:03;;;;;;;21.02;11.27;;;;;;;;;;5135461;27;20074;-91
2022/03/04 13:37:30;;;;;;;18.90;11.38;;;;;;;;;;5134108;27;20047;-92
2022/03/04 13:40:06;;;;;;;15.45;10.40;;;;;;;;;;5134262;27;20125;-91
2022/03/04 13:42:33;;;;;;;18.98;12.15;;;;;;;;;;5117242;27;20075;-93
2022/03/04 13:45:12;;;;;;;19.25;11.88;;;;;;;;;;5134824;27;20072;-91
2022/03/04 13:47:46;;;;;;;15.82;10.45;;;;;;;;;;5134290;27;20054;-92
2022/03/04 13:50:32;;;;;;;16.20;9.88;;;;;;;;;;5117366;27;20039;-93
2022/03/04 13:53:05;;;;;;;18.73;10.57;;;;;;;;;;5117614;27;20099;-92
2022/03/04 13:55:31;;;;;;;20.60;10.75;;;;;;;;;;5117690;27;20035;-94
2022/03/04 13:58:01;;;;;;;14.65;9.65;;;;;;;;;;5133842;27;20043;-94
2022/03/04 14:00:34;;;;;;;15.38;9.05;;;;;;;;;;5117409;27;20108;-94
2022/03/04 14:03:03;;;;;;;15.30;9.73;;;;;;;;;;5133931;27;20035;-94
2022/03/04 14:05:30;;;;;;;14.18;8.98;;;;;;;;;;5133768;27;20043;-93
2022/03/04 14:08:26;;;;;;;15.32;9.55;;;;;;;;;;5133782;27;20049;-93
2022/03/04 14:10:52;;;;;;;17.02;9.20;;;;;;;;;;5121527;27;20104;-92
2022/03/04 14:13:20;;;;;;;14.32;9.30;;;;;;;;;;5133887;27;20046;-92
2022/03/04 14:15:47;;;;;;;15.32;9.45;;;;;;;;;;5117078;27;20042;-94
2022/03/04 14:18:14;;;;;;;16.17;10.20;;;;;;;;;;5133707;27;20053;-94
2022/03/04 14:20:41;;;;;;;14.82;10.05;;;;;;;;;;5133851;27;20035;-94
2022/03/04 14:23:08;;;;;;;17.67;10.00;;;;;;;;;;5133941;27;20413;-94